createdAt,value
2022-11-19T00:01:31.018Z,3.20
2022-11-19T00:04:01.861Z,2.70
2022-11-19T00:06:33.321Z,3.10
2022-11-19T00:09:05.603Z,2.60
2022-11-19T00:11:50.238Z,3.60
2022-11-19T00:14:21.179Z,3.00
2022-11-19T00:16:52.121Z,2.90
2022-11-19T00:19:22.858Z,2.70
2022-11-19T00:21:53.584Z,2.70
2022-11-19T00:24:24.289Z,3.00
2022-11-19T00:26:55.999Z,2.90
2022-11-19T00:29:26.964Z,2.80
2022-11-19T00:31:57.626Z,3.20
2022-11-19T00:34:28.313Z,3.00
2022-11-19T00:36:59.049Z,2.90
2022-11-19T00:39:29.729Z,2.70
2022-11-19T00:42:00.426Z,2.60
2022-11-19T00:44:35.703Z,3.00
2022-11-19T00:50:51.230Z,2.50
2022-11-19T00:53:21.969Z,2.70
2022-11-19T00:55:52.908Z,2.50
2022-11-19T00:58:23.853Z,2.50
2022-11-19T01:00:54.597Z,2.20
2022-11-19T01:03:26.278Z,2.90
2022-11-19T01:05:57.214Z,2.90
2022-11-19T01:08:28.339Z,3.20
2022-11-19T01:11:04.493Z,2.70
2022-11-19T01:13:38.308Z,2.30
2022-11-19T01:16:11.892Z,2.30
2022-11-19T01:18:43.777Z,2.60
2022-11-19T01:21:15.637Z,2.50
2022-11-19T01:23:46.887Z,2.40
2022-11-19T01:26:18.557Z,2.40
2022-11-19T01:28:49.869Z,2.10
2022-11-19T01:31:23.187Z,2.60
2022-11-19T01:33:54.233Z,2.70
2022-11-19T01:36:26.548Z,2.50
2022-11-19T01:38:58.403Z,2.70
2022-11-19T01:41:31.146Z,3.00
2022-11-19T01:44:04.424Z,2.20
2022-11-19T01:46:37.202Z,2.50
2022-11-19T01:49:11.623Z,2.40
2022-11-19T01:51:48.358Z,2.60
2022-11-19T01:54:26.591Z,2.20
2022-11-19T01:57:00.404Z,2.50
2022-11-19T01:59:32.727Z,2.40
2022-11-19T02:02:03.581Z,3.20
2022-11-19T02:04:36.291Z,2.80
2022-11-19T02:07:08.818Z,2.40
2022-11-19T02:09:41.413Z,2.40
2022-11-19T02:12:37.936Z,2.30
2022-11-19T02:15:18.943Z,2.20
2022-11-19T02:18:05.908Z,2.40
2022-11-19T02:20:54.126Z,2.20
2022-11-19T02:23:51.380Z,2.10
2022-11-19T02:26:47.578Z,2.40
2022-11-19T02:29:31.551Z,2.40
2022-11-19T02:32:07.611Z,2.60
2022-11-19T02:34:47.871Z,2.20
2022-11-19T02:37:25.860Z,2.10
2022-11-19T02:40:01.079Z,2.10
2022-11-19T02:42:37.248Z,2.60
2022-11-19T02:45:15.507Z,2.20
2022-11-19T02:47:50.802Z,2.40
2022-11-19T02:50:26.089Z,2.40
2022-11-19T02:52:57.724Z,2.40
2022-11-19T02:55:29.220Z,2.80
2022-11-19T02:58:05.190Z,2.80
2022-11-19T03:01:02.600Z,2.40
2022-11-19T03:03:52.307Z,2.40
2022-11-19T03:06:27.734Z,2.70
2022-11-19T03:08:58.470Z,2.60
2022-11-19T03:11:31.013Z,2.30
2022-11-19T03:14:29.767Z,2.50
2022-11-19T03:17:05.436Z,2.40
2022-11-19T03:19:44.221Z,2.90
2022-11-19T03:22:20.625Z,2.40
2022-11-19T03:24:57.802Z,2.30
2022-11-19T03:27:31.775Z,2.40
2022-11-19T03:30:05.332Z,2.30
2022-11-19T03:32:40.687Z,2.60
2022-11-19T03:35:16.922Z,2.40
2022-11-19T03:37:52.362Z,2.50
2022-11-19T03:40:24.680Z,2.60
2022-11-19T03:42:58.337Z,3.10
2022-11-19T03:48:03.907Z,2.80
2022-11-19T03:50:42.245Z,2.30
2022-11-19T03:53:13.065Z,2.60
2022-11-19T03:55:50.329Z,2.60
2022-11-19T03:58:24.684Z,2.50
2022-11-19T04:00:55.835Z,2.50
2022-11-19T04:03:26.777Z,2.70
2022-11-19T04:05:57.410Z,2.40
2022-11-19T04:08:28.152Z,2.60
2022-11-19T04:13:29.404Z,2.70
2022-11-19T04:16:00.027Z,2.80
2022-11-19T04:18:31.970Z,2.40
2022-11-19T04:21:02.695Z,2.70
2022-11-19T04:23:33.395Z,2.60
2022-11-19T04:26:04.134Z,2.50
2022-11-19T04:28:34.791Z,2.50
2022-11-19T04:31:05.783Z,3.30
2022-11-19T04:33:36.770Z,3.00
2022-11-19T04:36:09.650Z,2.60
2022-11-19T04:38:40.301Z,2.40
2022-11-19T04:41:11.340Z,3.20
2022-11-19T04:43:42.059Z,2.60
2022-11-19T04:46:12.899Z,2.60
2022-11-19T04:48:43.740Z,2.40
2022-11-19T04:51:14.477Z,2.60
2022-11-19T04:53:45.456Z,2.20
2022-11-19T04:56:16.248Z,2.40
2022-11-19T04:58:46.898Z,2.50
2022-11-19T05:01:17.569Z,2.40
2022-11-19T05:03:48.618Z,2.80
2022-11-19T05:06:19.337Z,2.40
2022-11-19T05:08:50.447Z,2.60
2022-11-19T05:11:21.201Z,2.20
2022-11-19T05:13:51.815Z,2.30
2022-11-19T05:16:22.663Z,2.30
2022-11-19T05:18:53.531Z,2.50
2022-11-19T05:21:24.425Z,2.30
2022-11-19T05:23:55.138Z,2.40
2022-11-19T05:26:25.735Z,2.20
2022-11-19T05:28:56.367Z,2.00
2022-11-19T05:31:26.977Z,2.50
2022-11-19T05:33:57.842Z,2.40
2022-11-19T05:36:28.663Z,2.70
2022-11-19T05:38:59.349Z,2.40
2022-11-19T05:41:30.059Z,2.80
2022-11-19T05:44:01.166Z,2.30
2022-11-19T05:46:31.843Z,2.50
2022-11-19T05:49:02.442Z,2.10
2022-11-19T05:51:33.209Z,2.40
2022-11-19T05:54:03.862Z,2.70
2022-11-19T05:56:34.560Z,2.30
2022-11-19T05:59:05.290Z,2.10
2022-11-19T06:01:36.059Z,2.50
2022-11-19T06:04:07.396Z,2.50
2022-11-19T06:06:38.356Z,2.50
2022-11-19T06:09:09.652Z,2.10
2022-11-19T06:11:50.503Z,2.30
2022-11-19T06:14:23.314Z,2.00
2022-11-19T06:16:55.540Z,2.50
2022-11-19T06:19:28.970Z,2.40
2022-11-19T06:21:59.871Z,2.20
2022-11-19T06:24:30.528Z,2.10
2022-11-19T06:27:01.381Z,2.60
2022-11-19T06:29:32.096Z,2.70
2022-11-19T06:32:03.177Z,2.00
2022-11-19T06:34:33.892Z,2.20
2022-11-19T06:37:04.617Z,2.30
2022-11-19T06:39:35.751Z,2.30
2022-11-19T06:42:24.301Z,2.30
2022-11-19T06:44:55.039Z,2.40
2022-11-19T06:47:25.770Z,2.40
2022-11-19T06:49:56.760Z,1.90
2022-11-19T06:52:27.602Z,2.20
2022-11-19T06:54:58.398Z,2.40
2022-11-19T06:57:29.243Z,2.00
2022-11-19T06:59:59.866Z,2.20
2022-11-19T07:02:30.518Z,2.40
2022-11-19T07:05:01.472Z,1.90
2022-11-19T07:07:32.456Z,2.90
2022-11-19T07:10:03.338Z,2.40
2022-11-19T07:12:34.005Z,2.10
2022-11-19T07:15:05.198Z,2.10
2022-11-19T07:17:36.057Z,1.90
2022-11-19T07:20:08.489Z,2.30
2022-11-19T07:22:39.582Z,2.40
2022-11-19T07:25:12.975Z,2.20
2022-11-19T07:27:47.337Z,2.80
2022-11-19T07:30:18.855Z,2.40
2022-11-19T07:32:49.617Z,3.00
2022-11-19T07:35:20.639Z,3.10
2022-11-19T07:37:51.436Z,2.90
2022-11-19T07:40:22.129Z,2.90
2022-11-19T07:42:53.487Z,3.30
2022-11-19T07:45:25.434Z,4.10
2022-11-19T07:47:56.480Z,3.50
2022-11-19T07:50:27.249Z,3.50
2022-11-19T07:53:00.809Z,3.10
2022-11-19T07:55:31.460Z,3.50
2022-11-19T07:58:02.396Z,3.10
2022-11-19T08:00:33.328Z,2.80
2022-11-19T08:03:05.753Z,3.10
2022-11-19T08:05:39.459Z,3.00
2022-11-19T08:10:39.669Z,3.20
2022-11-19T08:13:10.495Z,3.10
2022-11-19T08:15:41.248Z,2.90
2022-11-19T08:18:13.963Z,2.90
2022-11-19T08:20:48.286Z,3.40
2022-11-19T08:23:18.978Z,3.00
2022-11-19T08:25:49.722Z,3.30
2022-11-19T08:28:20.663Z,2.90
2022-11-19T08:30:51.382Z,3.20
2022-11-19T08:33:22.141Z,2.90
2022-11-19T08:35:57.340Z,3.10
2022-11-19T08:38:28.119Z,2.80
2022-11-19T08:41:12.608Z,3.00
2022-11-19T08:43:43.536Z,2.70
2022-11-19T08:46:14.456Z,2.90
2022-11-19T08:48:45.396Z,2.50
2022-11-19T08:51:16.646Z,2.50
2022-11-19T08:53:47.312Z,2.50
2022-11-19T08:56:18.305Z,2.80
2022-11-19T08:58:49.375Z,2.50
2022-11-19T09:01:20.604Z,2.60
2022-11-19T09:03:51.663Z,2.80
2022-11-19T09:06:22.308Z,2.80
2022-11-19T09:08:53.425Z,2.70
2022-11-19T09:11:24.731Z,3.00
2022-11-19T09:13:55.455Z,3.00
2022-11-19T09:16:26.171Z,2.50
2022-11-19T09:18:57.237Z,2.60
2022-11-19T09:21:28.136Z,3.20
2022-11-19T09:23:58.999Z,2.40
2022-11-19T09:26:30.251Z,2.80
2022-11-19T09:29:01.094Z,2.90
2022-11-19T09:31:33.083Z,2.50
2022-11-19T09:34:04.024Z,3.20
2022-11-19T09:36:34.927Z,2.70
2022-11-19T09:39:05.912Z,2.40
2022-11-19T09:41:48.795Z,3.20
2022-11-19T09:44:44.344Z,2.50
2022-11-19T09:47:30.291Z,2.80
2022-11-19T09:52:39.598Z,2.40
2022-11-19T09:55:17.634Z,2.50
2022-11-19T09:57:53.912Z,2.20
2022-11-19T10:00:28.212Z,2.30
2022-11-19T10:03:02.357Z,2.20
2022-11-19T10:05:40.806Z,2.50
2022-11-19T10:08:24.387Z,2.60
2022-11-19T10:11:08.017Z,2.60
2022-11-19T10:13:52.783Z,2.10
2022-11-19T10:16:35.723Z,2.60
2022-11-19T10:19:21.593Z,2.60
2022-11-19T10:22:01.563Z,2.40
2022-11-19T10:27:14.259Z,2.90
2022-11-19T10:29:45.425Z,2.50
2022-11-19T10:32:28.912Z,2.30
2022-11-19T10:35:07.853Z,2.20
2022-11-19T10:37:50.058Z,2.30
2022-11-19T10:40:24.271Z,2.50
2022-11-19T10:42:58.760Z,2.60
2022-11-19T10:45:31.307Z,2.20
2022-11-19T10:48:09.515Z,2.40
2022-11-19T10:50:42.079Z,2.30
2022-11-19T10:53:19.244Z,2.80
2022-11-19T10:55:54.629Z,2.50
2022-11-19T10:58:30.553Z,2.70
2022-11-19T11:01:04.261Z,2.10
2022-11-19T11:06:10.082Z,2.00
2022-11-19T11:08:50.991Z,2.10
2022-11-19T11:11:45.688Z,2.20
2022-11-19T11:14:34.845Z,2.10
2022-11-19T11:17:06.439Z,2.30
2022-11-19T11:19:37.686Z,2.30
2022-11-19T11:22:09.625Z,2.10
2022-11-19T11:24:41.583Z,2.40
2022-11-19T11:27:28.404Z,2.70
2022-11-19T11:30:17.876Z,2.20
2022-11-19T11:32:48.810Z,2.20
2022-11-19T11:35:37.853Z,2.40
2022-11-19T11:38:10.013Z,2.10
2022-11-19T11:40:40.964Z,2.70
2022-11-19T11:43:19.587Z,10.20
2022-11-19T11:46:02.096Z,9.90
2022-11-19T11:48:38.219Z,8.70
2022-11-19T11:51:09.543Z,9.80
2022-11-19T11:53:43.026Z,8.40
2022-11-19T11:56:13.825Z,10.60
2022-11-19T11:58:44.579Z,9.10
2022-11-19T12:01:19.197Z,7.90
2022-11-19T12:03:59.014Z,8.40
2022-11-19T12:09:11.913Z,6.50
2022-11-19T12:11:58.188Z,8.40
2022-11-19T12:14:38.231Z,7.00
2022-11-19T12:17:28.043Z,7.00
2022-11-19T12:20:11.482Z,6.60
2022-11-19T12:22:57.067Z,6.80
2022-11-19T12:25:36.656Z,6.60
2022-11-19T12:28:29.287Z,6.40
2022-11-19T12:31:12.683Z,6.00
2022-11-19T12:34:00.343Z,5.40
2022-11-19T12:36:37.996Z,5.80
2022-11-19T12:39:18.850Z,5.40
2022-11-19T12:42:12.509Z,5.50
2022-11-19T12:44:53.636Z,6.00
2022-11-19T12:47:44.860Z,5.20
2022-11-19T12:50:34.517Z,5.10
2022-11-19T12:53:21.288Z,5.70
2022-11-19T12:56:03.176Z,4.90
2022-11-19T12:58:44.180Z,4.90
2022-11-19T13:01:21.110Z,5.70
2022-11-19T13:04:04.180Z,5.00
2022-11-19T13:06:42.798Z,4.60
2022-11-19T13:09:21.397Z,4.70
2022-11-19T13:11:56.654Z,4.40
2022-11-19T13:14:34.949Z,5.00
2022-11-19T13:17:14.931Z,4.30
2022-11-19T13:19:48.215Z,4.60
2022-11-19T13:22:24.845Z,4.10
2022-11-19T13:25:00.225Z,4.10
2022-11-19T13:27:33.146Z,4.50
2022-11-19T13:30:07.044Z,4.10
2022-11-19T13:32:44.954Z,4.50
2022-11-19T13:35:21.802Z,4.40
2022-11-19T13:37:58.952Z,3.50
2022-11-19T13:40:35.763Z,3.50
2022-11-19T13:43:32.230Z,3.30
2022-11-19T13:46:12.637Z,4.30
2022-11-19T13:48:47.242Z,3.80
2022-11-19T13:51:26.993Z,3.60
2022-11-19T13:54:02.945Z,3.50
2022-11-19T13:56:45.360Z,3.10
2022-11-19T13:59:30.874Z,3.70
2022-11-19T14:02:39.291Z,4.10
2022-11-19T14:05:44.141Z,4.00
2022-11-19T14:08:42.231Z,3.90
2022-11-19T14:14:37.886Z,2.80
2022-11-19T14:17:37.638Z,3.10
2022-11-19T14:20:51.869Z,3.10
2022-11-19T14:23:59.251Z,3.20
2022-11-19T14:27:11.909Z,2.90
2022-11-19T14:30:03.041Z,3.40
2022-11-19T14:32:44.015Z,2.80
2022-11-19T14:35:29.912Z,3.50
2022-11-19T14:38:14.297Z,3.00
2022-11-19T14:40:45.824Z,3.10
2022-11-19T14:43:47.859Z,3.70
2022-11-19T14:46:33.534Z,3.30
2022-11-19T14:49:08.311Z,3.00
2022-11-19T14:51:41.386Z,3.30
2022-11-19T14:54:31.670Z,3.30
2022-11-19T14:57:25.801Z,3.20
2022-11-19T15:00:00.284Z,3.40
2022-11-19T15:02:36.831Z,3.50
2022-11-19T15:05:18.093Z,3.50
2022-11-19T15:07:55.906Z,3.20
2022-11-19T15:10:49.652Z,3.80
2022-11-19T15:13:27.000Z,3.40
2022-11-19T15:16:04.211Z,3.20
2022-11-19T15:19:14.149Z,3.30
2022-11-19T15:22:09.132Z,3.50
2022-11-19T15:24:53.360Z,3.30
2022-11-19T15:27:37.325Z,3.00
2022-11-19T15:30:15.385Z,3.10
2022-11-19T15:33:04.964Z,3.00
2022-11-19T15:35:55.499Z,3.20
2022-11-19T15:38:34.721Z,3.80
2022-11-19T15:41:08.654Z,3.30
2022-11-19T15:43:44.793Z,3.30
2022-11-19T15:46:20.158Z,2.80
2022-11-19T15:49:04.008Z,3.40
2022-11-19T15:51:45.352Z,3.30
2022-11-19T15:54:16.711Z,3.30
2022-11-19T15:56:51.533Z,3.50
2022-11-19T15:59:23.880Z,2.60
2022-11-19T16:02:02.280Z,3.00
2022-11-19T16:04:37.807Z,3.10
2022-11-19T16:07:11.757Z,3.30
2022-11-19T16:09:43.137Z,3.40
2022-11-19T16:12:40.911Z,2.80
2022-11-19T16:15:42.658Z,3.40
2022-11-19T16:18:18.661Z,3.70
2022-11-19T16:20:51.589Z,3.10
2022-11-19T16:23:25.044Z,2.80
2022-11-19T16:25:56.267Z,2.50
2022-11-19T16:28:30.545Z,2.70
2022-11-19T16:31:05.169Z,2.80
2022-11-19T16:33:37.047Z,3.00
2022-11-19T16:36:19.528Z,2.60
2022-11-19T16:38:52.233Z,2.70
2022-11-19T16:41:42.098Z,2.90
2022-11-19T16:44:16.860Z,3.00
2022-11-19T16:46:47.773Z,3.00
2022-11-19T16:49:32.631Z,3.10
2022-11-19T16:52:04.290Z,3.30
2022-11-19T16:54:52.944Z,3.20
2022-11-19T16:57:26.635Z,3.30
2022-11-19T17:02:37.406Z,2.90
2022-11-19T17:05:13.488Z,3.40
2022-11-19T17:07:47.899Z,3.10
2022-11-19T17:10:31.657Z,2.90
2022-11-19T17:13:23.370Z,3.20
2022-11-19T17:15:54.227Z,3.30
2022-11-19T17:18:30.770Z,3.30
2022-11-19T17:21:04.443Z,3.20
2022-11-19T17:26:09.545Z,3.20
2022-11-19T17:28:45.399Z,3.60
2022-11-19T17:31:22.905Z,4.40
2022-11-19T17:33:56.359Z,3.60
2022-11-19T17:36:27.890Z,3.20
2022-11-19T17:39:00.008Z,3.50
2022-11-19T17:41:50.306Z,3.20
2022-11-19T17:44:36.138Z,3.40
2022-11-19T17:49:53.561Z,3.60
2022-11-19T17:52:26.422Z,3.40
2022-11-19T17:54:59.336Z,3.50
2022-11-19T17:57:30.232Z,3.40
2022-11-19T18:00:01.205Z,3.40
2022-11-19T18:02:32.022Z,3.60
2022-11-19T18:05:02.898Z,3.20
2022-11-19T18:07:33.709Z,3.60
2022-11-19T18:10:04.985Z,3.60
2022-11-19T18:12:35.992Z,3.70
2022-11-19T18:15:08.365Z,3.50
2022-11-19T18:17:39.625Z,3.70
2022-11-19T18:20:12.587Z,4.10
2022-11-19T18:22:43.420Z,3.80
2022-11-19T18:25:19.943Z,3.80
2022-11-19T18:27:51.168Z,4.10
2022-11-19T18:30:22.112Z,4.30
2022-11-19T18:32:53.103Z,4.20
2022-11-19T18:35:25.887Z,4.10
2022-11-19T18:37:57.186Z,4.50
2022-11-19T18:40:28.047Z,4.30
2022-11-19T18:43:16.275Z,4.30
2022-11-19T18:45:47.084Z,4.10
2022-11-19T18:48:18.002Z,4.30
2022-11-19T18:50:48.648Z,4.50
2022-11-19T18:53:19.573Z,4.90
2022-11-19T18:55:50.333Z,4.80
2022-11-19T18:58:21.448Z,4.40
2022-11-19T19:00:52.493Z,4.80
2022-11-19T19:03:23.571Z,4.70
2022-11-19T19:05:54.757Z,4.30
2022-11-19T19:08:25.911Z,4.60
2022-11-19T19:11:17.111Z,4.70
2022-11-19T19:13:48.554Z,5.30
2022-11-19T19:16:20.030Z,4.20
2022-11-19T19:18:50.959Z,4.90
2022-11-19T19:21:23.563Z,5.30
2022-11-19T19:23:54.511Z,4.70
2022-11-19T19:26:25.677Z,4.80
2022-11-19T19:28:59.225Z,4.80
2022-11-19T19:31:30.138Z,4.90
2022-11-19T19:34:00.930Z,5.20
2022-11-19T19:36:32.167Z,6.00
2022-11-19T19:39:03.422Z,5.80
2022-11-19T19:41:34.762Z,4.60
2022-11-19T19:44:07.163Z,5.00
2022-11-19T19:46:38.385Z,5.30
2022-11-19T19:49:09.482Z,5.30
2022-11-19T19:51:40.375Z,4.80
2022-11-19T19:54:11.852Z,5.40
2022-11-19T19:56:42.952Z,5.80
2022-11-19T19:59:14.829Z,5.00
2022-11-19T20:01:47.611Z,6.00
2022-11-19T20:04:18.373Z,6.60
2022-11-19T20:06:51.767Z,6.00
2022-11-19T20:09:23.130Z,5.90
2022-11-19T20:11:54.473Z,5.50
2022-11-19T20:14:25.406Z,5.70
2022-11-19T20:16:56.248Z,5.50
2022-11-19T20:19:27.494Z,5.80
2022-11-19T20:21:58.705Z,6.50
2022-11-19T20:24:29.769Z,5.90
2022-11-19T20:27:01.239Z,5.60
2022-11-19T20:29:32.522Z,6.20
2022-11-19T20:32:04.263Z,5.90
2022-11-19T20:34:35.403Z,6.90
2022-11-19T20:37:06.343Z,6.40
2022-11-19T20:39:37.404Z,6.20
2022-11-19T20:42:26.038Z,7.30
2022-11-19T20:44:56.967Z,6.20
2022-11-19T20:47:27.713Z,6.50
2022-11-19T20:49:59.704Z,6.80
2022-11-19T20:52:30.528Z,8.00
2022-11-19T20:55:06.418Z,6.70
2022-11-19T20:57:37.832Z,6.40
2022-11-19T21:00:13.415Z,6.60
2022-11-19T21:02:44.322Z,6.90
2022-11-19T21:05:15.279Z,6.70
2022-11-19T21:07:46.000Z,6.60
2022-11-19T21:10:17.350Z,6.60
2022-11-19T21:13:02.218Z,7.10
2022-11-19T21:15:37.147Z,6.60
2022-11-19T21:18:08.270Z,6.40
2022-11-19T21:20:39.237Z,7.00
2022-11-19T21:23:10.383Z,6.40
2022-11-19T21:25:41.223Z,6.30
2022-11-19T21:28:12.604Z,6.30
2022-11-19T21:30:43.764Z,7.70
2022-11-19T21:33:14.503Z,6.40
2022-11-19T21:35:45.308Z,6.90
2022-11-19T21:38:16.149Z,7.20
2022-11-19T21:40:47.043Z,6.30
2022-11-19T21:43:18.240Z,6.30
2022-11-19T21:45:49.979Z,7.20
2022-11-19T21:48:21.144Z,6.50
2022-11-19T21:50:52.605Z,6.70
2022-11-19T21:53:23.655Z,6.80
2022-11-19T21:55:54.999Z,8.50
2022-11-19T21:58:25.852Z,7.10
2022-11-19T22:01:01.276Z,6.80
2022-11-19T22:03:33.432Z,7.60
2022-11-19T22:06:05.878Z,6.20
2022-11-19T22:08:38.499Z,6.50
2022-11-19T22:11:24.517Z,6.70
2022-11-19T22:13:56.406Z,7.70
2022-11-19T22:16:27.913Z,7.20
2022-11-19T22:18:58.860Z,7.10
2022-11-19T22:21:30.479Z,6.40
2022-11-19T22:24:01.615Z,7.10
2022-11-19T22:26:32.503Z,6.70
2022-11-19T22:29:03.331Z,7.00
2022-11-19T22:31:34.290Z,6.30
2022-11-19T22:34:05.945Z,6.80
2022-11-19T22:36:36.993Z,6.80
2022-11-19T22:39:07.959Z,7.00
2022-11-19T22:41:38.773Z,7.40
2022-11-19T22:44:09.827Z,7.90
2022-11-19T22:46:40.760Z,7.60
2022-11-19T22:49:11.630Z,7.10
2022-11-19T22:51:42.441Z,7.30
2022-11-19T22:54:15.358Z,6.40
2022-11-19T22:56:46.099Z,6.80
2022-11-19T22:59:16.904Z,7.20
2022-11-19T23:01:47.588Z,7.20
2022-11-19T23:04:18.502Z,7.20
2022-11-19T23:06:49.322Z,7.50
2022-11-19T23:09:20.762Z,8.10
2022-11-19T23:12:09.356Z,6.90
2022-11-19T23:14:40.187Z,7.20
2022-11-19T23:17:11.105Z,7.80
2022-11-19T23:19:42.169Z,6.80
2022-11-19T23:22:13.162Z,7.30
2022-11-19T23:24:44.243Z,7.30
2022-11-19T23:27:19.347Z,7.00
2022-11-19T23:29:52.775Z,8.30
2022-11-19T23:32:23.614Z,7.20
2022-11-19T23:34:54.251Z,7.50
2022-11-19T23:37:24.892Z,7.30
2022-11-19T23:39:55.627Z,7.90
2022-11-19T23:42:26.464Z,7.50
2022-11-19T23:44:57.409Z,7.70
2022-11-19T23:47:28.091Z,7.10
2022-11-19T23:49:58.782Z,7.20
2022-11-19T23:52:32.520Z,7.40
2022-11-19T23:55:03.779Z,8.30
2022-11-19T23:57:34.446Z,7.60
